.
WxDataArchive / Data Records for 2008-07-25
2008-07-24 July 2008 2008-07-26

Data Records for Friday, 25 July 2008

Time	Temp	Chill	HIndex	Humid	Dewpt	 Wind 	HiWind	WindDir	Rain 	Barom 
-----	----	-----	------	-----	-----	------	------	-------	-----	----- 
00:00	62.1	62.1	62.1	72	53.0	0	0	---	0.00	30.002 
00:05	61.8	61.8	61.8	73	53.0	0	0	---	0.00	29.999 
00:10	61.6	61.6	61.6	73	52.9	0	0	---	0.00	30.000 
00:15	61.5	61.5	61.5	74	53.1	0	0	---	0.00	30.001 
00:20	61.2	61.2	61.2	74	52.8	0	0	---	0.00	30.001 
00:25	61.0	61.0	61.0	75	53.0	0	0	---	0.00	30.001 
00:30	60.7	60.7	60.7	76	53.1	0	0	---	0.00	30.000 
00:35	60.5	60.5	60.5	76	52.9	0	0	---	0.00	29.999 
00:40	60.4	60.4	60.4	77	53.2	0	1	270	0.00	30.002 
00:45	60.1	60.1	60.1	78	53.2	0	0	---	0.00	30.002 
00:50	59.9	59.9	59.9	78	53.0	0	0	---	0.00	30.001 
00:55	59.9	59.9	59.9	78	53.0	0	0	---	0.00	29.999 
01:00	59.9	59.9	59.9	78	53.0	0	0	---	0.00	30.001 
01:05	60.1	60.1	60.1	79	53.6	0	0	---	0.00	29.999 
01:10	60.2	60.2	60.2	79	53.7	0	0	---	0.00	29.999 
01:15	60.4	60.4	60.4	78	53.5	0	0	---	0.00	30.000 
01:20	60.4	60.4	60.4	78	53.5	0	0	---	0.00	30.000 
01:25	60.4	60.4	60.4	78	53.5	0	0	---	0.00	30.000 
01:30	60.5	60.5	60.5	79	54.0	0	0	---	0.00	30.001 
01:35	60.7	60.7	60.7	79	54.1	0	0	---	0.00	30.001 
01:40	61.0	61.0	61.0	79	54.4	0	0	---	0.00	30.001 
01:45	61.3	61.3	61.3	79	54.7	0	1	270	0.00	30.001 
01:50	61.8	61.8	61.8	78	54.9	0	0	---	0.00	29.999 
01:55	62.3	62.3	62.3	77	55.0	0	1	270	0.00	30.000 
02:00	62.4	62.4	62.4	77	55.1	0	1	270	0.00	29.999 
02:05	62.4	62.4	62.4	77	55.1	0	1	270	0.00	30.002 
02:10	62.4	62.4	62.4	77	55.1	0	0	---	0.00	30.002 
02:15	62.4	62.4	62.4	78	55.4	0	0	---	0.00	30.001 
02:20	62.3	62.3	62.3	78	55.3	0	0	---	0.00	30.002 
02:25	62.1	62.1	62.1	78	55.2	0	0	---	0.00	30.002 
02:30	61.8	61.8	61.8	79	55.2	0	0	---	0.00	30.004 
02:35	61.6	61.6	61.6	79	55.0	0	0	---	0.00	30.003 
02:40	61.3	61.3	61.3	80	55.1	0	0	---	0.00	30.005 
02:45	61.2	61.2	61.2	80	55.0	0	0	---	0.00	30.005 
02:50	60.9	60.9	60.9	81	55.0	0	0	---	0.00	30.011 
02:55	60.5	60.5	60.5	81	54.6	0	0	---	0.00	30.014 
03:00	60.4	60.4	60.4	82	54.9	0	0	---	0.00	30.016 
03:05	60.1	60.1	60.1	84	55.2	0	0	---	0.00	30.018 
03:10	59.9	59.9	59.9	84	55.0	0	0	---	0.00	30.018 
03:15	59.6	59.6	59.6	85	55.1	0	0	---	0.00	30.014 
03:20	59.5	59.5	59.5	85	55.0	0	0	---	0.00	30.014 
03:25	59.3	59.3	59.3	86	55.1	0	0	---	0.00	30.017 
03:30	59.2	59.2	59.2	87	55.3	0	0	---	0.00	30.018 
03:35	59.0	59.0	59.0	88	55.4	0	0	---	0.00	30.020 
03:40	58.9	58.9	58.9	88	55.3	0	0	---	0.00	30.019 
03:45	58.7	58.7	58.7	88	55.2	0	0	---	0.00	30.017 
03:50	58.6	58.6	58.6	88	55.1	0	0	---	0.00	30.018 
03:55	58.4	58.4	58.4	89	55.2	0	0	---	0.00	30.018 
04:00	58.3	58.3	58.3	89	55.1	0	0	---	0.00	30.019 
04:05	58.1	58.1	58.1	90	55.2	0	0	---	0.00	30.018 
04:10	58.0	58.0	58.0	90	55.1	0	0	---	0.00	30.019 
04:15	58.0	58.0	58.0	90	55.1	0	0	---	0.00	30.021 
04:20	57.8	57.8	57.8	91	55.2	0	0	---	0.00	30.021 
04:25	57.6	57.6	57.6	91	55.0	0	0	---	0.00	30.020 
04:30	57.6	57.6	57.6	91	55.0	0	0	---	0.00	30.019 
04:35	57.5	57.5	57.5	92	55.2	0	0	---	0.00	30.019 
04:40	57.3	57.3	57.3	92	55.0	0	0	---	0.00	30.020 
04:45	57.2	57.2	57.2	92	54.9	0	0	---	0.00	30.019 
04:50	57.0	57.0	57.0	92	54.7	0	0	---	0.00	30.015 
04:55	56.9	56.9	56.9	92	54.6	0	0	---	0.00	30.013 
05:00	56.7	56.7	56.7	92	54.4	0	0	---	0.00	30.009 
05:05	56.6	56.6	56.6	92	54.3	0	0	---	0.00	30.009 
05:10	56.6	56.6	56.6	92	54.3	0	0	---	0.00	30.008 
05:15	56.5	56.5	56.5	92	54.2	0	0	---	0.00	30.008 
05:20	56.5	56.5	56.5	93	54.5	0	0	---	0.00	30.010 
05:25	56.5	56.5	56.5	93	54.5	0	0	---	0.00	30.009 
05:30	56.3	56.3	56.3	93	54.3	0	0	---	0.00	30.008 
05:35	56.3	56.3	56.3	93	54.3	0	0	---	0.00	30.007 
05:40	56.3	56.3	56.3	93	54.3	0	0	---	0.00	30.008 
05:45	56.2	56.2	56.2	93	54.2	0	0	---	0.00	30.008 
05:50	56.2	56.2	56.2	94	54.5	0	0	---	0.00	30.007 
05:55	56.3	56.3	56.3	94	54.6	0	0	---	0.00	30.008 
06:00	56.3	56.3	56.3	94	54.6	0	0	---	0.00	30.007 
06:05	56.5	56.5	56.5	94	54.8	0	0	---	0.00	30.009 
06:10	56.7	56.7	56.7	94	55.0	0	0	---	0.00	30.010 
06:15	57.0	57.0	57.0	95	55.6	0	0	---	0.00	30.008 
06:20	57.2	57.2	57.2	95	55.8	0	0	---	0.00	30.007 
06:25	57.5	57.5	57.5	95	56.1	0	0	---	0.00	30.007 
06:30	57.8	57.8	57.8	95	56.4	0	0	---	0.00	30.007 
06:35	58.3	58.3	58.3	95	56.9	0	0	---	0.00	30.012 
06:40	58.7	58.7	58.7	95	57.3	0	0	---	0.00	30.009 
06:45	59.2	59.2	59.2	95	57.8	0	0	---	0.00	30.014 
06:50	59.6	59.6	59.6	95	58.2	0	0	---	0.00	30.016 
06:55	60.2	60.2	60.2	94	58.5	0	0	---	0.00	30.016 
07:00	61.0	61.0	61.0	93	59.0	0	1	270	0.00	30.010 
07:05	62.1	62.1	62.1	92	59.7	0	0	---	0.00	30.014 
07:10	62.9	62.9	62.9	89	59.6	0	0	---	0.00	30.011 
07:15	63.5	63.5	63.5	87	59.6	0	0	---	0.00	30.009 
07:20	64.2	64.2	64.2	85	59.6	0	0	---	0.00	30.014 
07:25	64.5	64.5	64.5	84	59.6	0	1	270	0.00	30.015 
07:30	65.0	65.0	65.0	83	59.7	0	0	---	0.00	30.013 
07:35	65.5	65.5	65.5	82	59.9	0	1	270	0.00	30.011 
07:40	66.0	66.0	66.0	81	60.0	0	0	---	0.00	30.013 
07:45	66.9	66.9	66.9	80	60.5	0	0	---	0.00	30.014 
07:50	67.8	67.8	67.8	77	60.3	0	1	270	0.00	30.017 
07:55	68.6	68.6	68.6	74	60.0	0	1	270	0.00	30.022 
08:00	68.8	68.8	68.8	73	59.8	0	1	270	0.00	30.023 
08:05	69.1	69.1	69.1	73	60.1	0	0	---	0.00	30.030 
08:10	69.1	69.1	69.1	73	60.1	0	1	270	0.00	30.030 
08:15	69.6	69.6	69.6	72	60.2	0	1	270	0.00	30.030 
08:20	70.9	70.9	70.9	71	61.0	0	1	270	0.00	30.030 
08:25	71.6	71.6	71.6	67	60.0	0	1	270	0.00	30.028 
08:30	72.3	72.3	72.3	66	60.3	0	2	270	0.00	30.026 
08:35	72.8	72.8	72.8	64	59.9	1	3	270	0.00	30.030 
08:40	73.0	73.0	73.0	65	60.5	0	1	270	0.00	30.030 
08:45	73.3	73.3	73.3	64	60.4	1	2	270	0.00	30.026 
08:50	73.7	73.7	73.7	62	59.9	0	2	0	0.00	30.021 
08:55	74.2	74.2	74.2	61	59.9	0	1	338	0.00	30.024 
09:00	74.7	74.7	74.7	60	59.9	0	2	338	0.00	30.027 
09:05	75.3	75.3	77.7	56	58.5	1	3	338	0.00	30.028 
09:10	75.3	75.3	77.7	55	58.0	1	3	68	0.00	30.026 
09:15	75.3	75.3	77.7	56	58.5	1	2	68	0.00	30.028 
09:20	75.3	75.3	77.7	55	58.0	1	3	68	0.00	30.025 
09:25	75.1	75.1	77.5	58	59.3	1	3	68	0.00	30.024 
09:30	74.9	74.9	74.9	57	58.6	1	3	270	0.00	30.020 
09:35	75.1	75.1	77.6	56	58.3	1	4	248	0.00	30.021 
09:40	75.3	75.3	77.6	58	59.5	1	4	248	0.00	30.020 
09:45	75.4	75.4	77.7	55	58.1	1	5	68	0.00	30.021 
09:50	75.3	75.3	77.7	55	58.0	2	4	270	0.00	30.019 
09:55	75.8	75.8	78.0	54	57.9	1	4	45	0.00	30.018 
10:00	76.0	76.0	78.1	53	57.6	1	4	90	0.00	30.015 
10:05	76.0	76.0	78.1	55	58.6	1	4	248	0.00	30.018 
10:10	76.3	76.3	78.3	54	58.4	1	3	45	0.00	30.019 
10:15	76.3	76.3	78.3	54	58.4	1	4	248	0.00	30.019 
10:20	76.5	76.5	78.4	54	58.6	2	6	90	0.00	30.015 
10:25	76.5	76.5	78.4	53	58.1	2	5	248	0.00	30.016 
10:30	76.3	76.3	78.2	51	56.8	2	6	270	0.00	30.017 
10:35	76.3	76.3	78.2	51	56.8	2	7	270	0.00	30.017 
10:40	76.8	76.8	78.5	53	58.4	1	7	248	0.00	30.016 
10:45	77.4	77.4	78.8	50	57.3	2	7	248	0.00	30.016 
10:50	77.0	77.0	78.6	49	56.4	1	6	270	0.00	30.015 
10:55	76.5	76.5	78.3	50	56.5	1	3	248	0.00	30.015 
11:00	76.0	76.0	78.1	54	58.1	1	4	248	0.00	30.016 
11:05	76.7	76.7	78.4	51	57.2	1	4	248	0.00	30.019 
11:10	76.7	76.7	78.4	50	56.6	2	5	248	0.00	30.020 
11:15	76.3	76.3	78.2	50	56.3	1	3	270	0.00	30.020 
11:20	76.1	76.1	78.1	52	57.2	1	3	292	0.00	30.021 
11:25	75.8	75.8	78.0	51	56.4	1	3	292	0.00	30.019 
11:30	76.0	76.0	78.1	54	58.1	0	2	292	0.00	30.018 
11:35	76.0	76.0	78.1	51	56.5	1	3	248	0.00	30.019 
11:40	75.8	75.8	78.0	52	56.9	1	3	248	0.00	30.019 
11:45	75.6	75.6	77.9	53	57.2	1	3	248	0.00	30.019 
11:50	75.6	75.6	77.9	52	56.7	1	3	248	0.00	30.019 
11:55	75.8	75.8	78.0	52	56.9	1	3	248	0.00	30.019 
12:00	76.1	76.1	78.1	54	58.2	1	5	248	0.00	30.014 
12:05	76.3	76.3	78.2	50	56.3	2	4	270	0.00	30.015 
12:10	76.5	76.5	78.3	50	56.5	1	5	248	0.00	30.014 
12:15	77.0	77.0	78.6	51	57.5	1	5	270	0.00	30.010 
12:20	77.4	77.4	78.7	46	55.0	2	4	270	0.00	30.007 
12:25	77.6	77.6	78.9	48	56.3	2	5	270	0.00	30.005 
12:30	77.9	77.9	79.0	47	56.0	1	5	270	0.00	30.003 
12:35	78.1	78.1	79.1	46	55.6	2	5	270	0.00	30.003 
12:40	77.9	77.9	79.2	50	57.7	1	5	248	0.00	30.004 
12:45	77.7	77.7	79.0	50	57.6	1	4	292	0.00	30.003 
12:50	78.1	78.1	79.2	47	56.2	1	5	270	0.00	30.003 
12:55	78.3	78.3	79.3	48	57.0	1	3	248	0.00	30.001 
13:00	78.5	78.5	79.5	48	57.2	1	3	248	0.00	29.997 
13:05	78.5	78.5	79.5	48	57.2	1	3	248	0.00	29.997 
13:10	78.5	78.5	79.5	48	57.2	1	3	248	0.00	29.998 
13:15	78.5	78.5	79.4	47	56.6	1	3	270	0.00	29.998 
13:20	78.6	78.6	79.4	46	56.1	1	3	270	0.00	29.996 
13:25	78.6	78.6	79.5	48	57.2	1	2	270	0.00	29.994 
13:30	79.2	79.2	79.8	46	56.6	1	3	315	0.00	29.992 
13:35	79.6	79.6	80.1	46	57.0	2	5	270	0.00	29.991 
13:40	79.8	79.8	80.1	44	55.9	1	3	270	0.00	29.992 
13:45	79.9	79.9	80.4	46	57.2	1	3	292	0.00	29.986 
13:50	80.3	80.3	81.0	49	59.4	1	3	112	0.00	29.985 
13:55	80.7	80.7	80.7	43	56.1	2	6	270	0.00	29.985 
14:00	80.7	80.7	80.8	44	56.7	2	5	270	0.00	29.983 
14:05	80.3	80.3	80.6	45	57.0	1	3	270	0.00	29.983 
14:10	80.5	80.5	80.7	45	57.2	1	3	270	0.00	29.984 
14:15	80.3	80.3	80.7	46	57.6	1	3	292	0.00	29.980 
14:20	80.7	80.7	81.0	46	58.0	1	3	270	0.00	29.980 
14:25	81.1	81.1	81.0	43	56.5	1	4	248	0.00	29.980 
14:30	80.9	80.9	81.1	45	57.5	1	3	270	0.00	29.976 
14:35	81.2	81.2	81.7	48	59.6	1	3	270	0.00	29.973 
14:40	81.6	81.6	81.5	43	56.9	1	3	90	0.00	29.973 
14:45	81.4	81.4	81.3	43	56.7	1	6	270	0.00	29.973 
14:50	81.2	81.2	81.5	46	58.4	1	5	112	0.00	29.972 
14:55	80.9	80.9	81.2	46	58.2	1	6	135	0.00	29.973 
15:00	80.3	80.3	80.7	46	57.6	1	3	90	0.00	29.973 
15:05	80.1	80.1	80.5	46	57.4	1	2	90	0.00	29.973 
15:10	80.3	80.3	81.1	50	59.9	0	2	158	0.00	29.974 
15:15	80.3	80.3	80.8	47	58.2	1	3	248	0.00	29.972 
15:20	80.5	80.5	81.0	48	59.0	1	4	225	0.00	29.971 
15:25	80.7	80.7	81.2	48	59.2	1	3	225	0.00	29.968 
15:30	81.1	81.1	81.6	48	59.5	1	3	225	0.00	29.960 
15:35	81.1	81.1	81.7	49	60.1	1	4	292	0.00	29.958 
15:40	81.2	81.2	81.9	50	60.8	1	5	90	0.00	29.957 
15:45	81.2	81.2	81.6	47	59.0	2	5	90	0.00	29.956 
15:50	81.6	81.6	82.1	48	60.0	1	3	90	0.00	29.954 
15:55	81.6	81.6	81.9	47	59.4	2	5	90	0.00	29.952 
16:00	81.8	81.8	82.4	49	60.7	1	4	248	0.00	29.951 
16:05	82.2	82.2	83.3	52	62.8	0	3	112	0.00	29.951 
16:10	82.2	82.2	82.7	48	60.5	1	3	292	0.00	29.952 
16:15	81.6	81.6	81.9	47	59.4	1	3	248	0.00	29.952 
16:20	80.9	80.9	81.6	50	60.5	1	3	248	0.00	29.952 
16:25	80.3	80.3	81.2	51	60.5	1	4	68	0.00	29.953 
16:30	80.1	80.1	81.1	52	60.9	0	2	68	0.00	29.950 
16:35	80.1	80.1	81.1	52	60.9	1	4	112	0.00	29.949 
16:40	79.9	79.9	81.2	55	62.3	0	1	112	0.00	29.949 
16:45	79.9	79.9	81.0	53	61.2	1	4	112	0.00	29.946 
16:50	79.8	79.8	80.9	53	61.1	1	5	112	0.00	29.947 
16:55	79.8	79.8	81.1	55	62.2	1	4	112	0.00	29.946 
17:00	79.8	79.8	81.0	54	61.7	0	3	270	0.00	29.948 
17:05	79.9	79.9	81.1	54	61.7	0	2	248	0.00	29.945 
17:10	80.1	80.1	81.3	54	61.9	1	2	180	0.00	29.943 
17:15	80.1	80.1	81.3	54	61.9	1	4	158	0.00	29.943 
17:20	80.1	80.1	81.3	54	61.9	1	2	90	0.00	29.943 
17:25	79.9	79.9	81.1	54	61.7	1	3	112	0.00	29.943 
17:30	79.9	79.9	81.1	54	61.7	1	2	112	0.00	29.942 
17:35	79.9	79.9	81.1	54	61.7	0	4	112	0.00	29.942 
17:40	79.9	79.9	81.1	54	61.7	1	5	112	0.00	29.941 
17:45	79.9	79.9	81.3	56	62.8	0	2	112	0.00	29.942 
17:50	80.1	80.1	81.2	53	61.4	0	2	180	0.00	29.941 
17:55	80.3	80.3	81.2	51	60.5	1	6	270	0.00	29.940 
18:00	80.5	80.5	81.3	50	60.1	1	3	270	0.00	29.941 
18:05	80.3	80.3	81.1	50	59.9	1	3	270	0.00	29.938 
18:10	80.1	80.1	80.9	50	59.8	1	3	270	0.00	29.938 
18:15	79.9	79.9	80.9	52	60.7	0	1	270	0.00	29.937 
18:20	79.9	79.9	80.9	52	60.7	0	2	270	0.00	29.938 
18:25	79.9	79.9	81.0	53	61.2	0	1	45	0.00	29.938 
18:30	79.9	79.9	81.0	53	61.2	0	2	45	0.00	29.938 
18:35	79.8	79.8	80.9	53	61.1	1	3	270	0.00	29.938 
18:40	79.6	79.6	80.7	53	60.9	0	3	270	0.00	29.938 
18:45	79.4	79.4	80.6	54	61.3	0	3	68	0.00	29.937 
18:50	79.4	79.4	80.6	54	61.3	0	2	68	0.00	29.938 
18:55	79.4	79.4	80.6	54	61.3	0	2	45	0.00	29.939 
19:00	79.2	79.2	80.4	54	61.1	0	2	225	0.00	29.939 
19:05	79.2	79.2	80.4	54	61.1	1	3	225	0.00	29.932 
19:10	79.2	79.2	80.4	54	61.1	0	2	225	0.00	29.932 
19:15	79.0	79.0	80.3	55	61.4	0	1	225	0.00	29.932 
19:20	78.8	78.8	80.1	55	61.2	0	3	248	0.00	29.934 
19:25	78.6	78.6	80.0	56	61.6	1	4	248	0.00	29.936 
19:30	78.5	78.5	80.0	57	62.0	0	1	248	0.00	29.939 
19:35	78.5	78.5	80.0	57	62.0	0	2	248	0.00	29.937 
19:40	78.3	78.3	79.8	57	61.8	0	1	248	0.00	29.940 
19:45	78.1	78.1	79.7	58	62.1	0	1	248	0.00	29.938 
19:50	78.1	78.1	79.7	58	62.1	0	1	248	0.00	29.937 
19:55	77.9	77.9	79.5	59	62.4	0	1	292	0.00	29.934 
20:00	77.9	77.9	79.6	60	62.9	0	1	292	0.00	29.933 
20:05	77.7	77.7	79.4	60	62.7	0	1	292	0.00	29.927 
20:10	77.4	77.4	79.1	61	62.9	0	0	---	0.00	29.923 
20:15	77.2	77.2	79.0	62	63.2	0	1	292	0.00	29.921 
20:20	76.8	76.8	78.6	63	63.2	0	1	292	0.00	29.925 
20:25	76.7	76.7	78.5	63	63.1	0	1	292	0.00	29.925 
20:30	76.3	76.3	78.2	64	63.2	0	1	292	0.00	29.926 
20:35	76.1	76.1	78.0	64	63.0	0	1	292	0.00	29.927 
20:40	76.0	76.0	77.9	65	63.4	0	1	292	0.00	29.925 
20:45	75.8	75.8	77.7	65	63.2	0	1	292	0.00	29.925 
20:50	75.6	75.6	77.5	66	63.4	0	0	---	0.00	29.926 
20:55	75.3	75.3	77.2	66	63.1	0	0	---	0.00	29.925 
21:00	74.9	74.9	74.9	67	63.2	0	0	---	0.00	29.926 
21:05	74.7	74.7	74.7	68	63.4	0	0	---	0.00	29.925 
21:10	74.4	74.4	74.4	69	63.5	0	0	---	0.00	29.926 
21:15	74.0	74.0	74.0	70	63.6	0	0	---	0.00	29.928 
21:20	73.7	73.7	73.7	71	63.7	0	0	---	0.00	29.927 
21:25	73.5	73.5	73.5	71	63.5	0	0	---	0.00	29.927 
21:30	73.3	73.3	73.3	72	63.7	0	0	---	0.00	29.930 
21:35	73.0	73.0	73.0	73	63.8	0	0	---	0.00	29.930 
21:40	72.8	72.8	72.8	73	63.6	0	0	---	0.00	29.930 
21:45	72.7	72.7	72.7	74	63.9	0	0	---	0.00	29.931 
21:50	72.5	72.5	72.5	75	64.1	0	0	---	0.00	29.930 
21:55	72.3	72.3	72.3	76	64.3	0	0	---	0.00	29.929 
22:00	72.1	72.1	72.1	76	64.1	0	0	---	0.00	29.926 
22:05	72.0	72.0	72.0	77	64.4	0	0	---	0.00	29.924 
22:10	72.0	72.0	72.0	77	64.4	0	0	---	0.00	29.920 
22:15	71.8	71.8	71.8	77	64.2	0	0	---	0.00	29.921 
22:20	71.8	71.8	71.8	78	64.6	0	0	---	0.00	29.918 
22:25	71.6	71.6	71.6	78	64.4	0	0	---	0.00	29.917 
22:30	71.5	71.5	71.5	79	64.6	0	0	---	0.00	29.917 
22:35	71.1	71.1	71.1	79	64.2	0	0	---	0.00	29.917 
22:40	71.1	71.1	71.1	80	64.6	0	0	---	0.00	29.917 
22:45	70.9	70.9	70.9	81	64.8	0	0	---	0.00	29.916 
22:50	70.8	70.8	70.8	81	64.7	0	0	---	0.00	29.916 
22:55	70.6	70.6	70.6	81	64.5	0	0	---	0.00	29.916 
23:00	70.6	70.6	70.6	81	64.5	0	0	---	0.00	29.917 
23:05	70.6	70.6	70.6	81	64.5	0	0	---	0.00	29.917 
23:10	70.6	70.6	70.6	81	64.5	0	1	292	0.00	29.917 
23:15	70.8	70.8	70.8	81	64.7	0	1	292	0.00	29.917 
23:20	70.8	70.8	70.8	81	64.7	0	0	---	0.00	29.917 
23:25	70.8	70.8	70.8	81	64.7	0	0	---	0.00	29.916 
23:30	70.8	70.8	70.8	81	64.7	0	1	292	0.00	29.916 
23:35	70.8	70.8	70.8	81	64.7	0	1	292	0.00	29.916 
23:40	70.8	70.8	70.8	81	64.7	0	0	---	0.00	29.915 
23:45	70.8	70.8	70.8	81	64.7	0	0	---	0.00	29.913 
23:50	70.8	70.8	70.8	81	64.7	0	3	248	0.00	29.912 
23:55	70.8	70.8	70.8	82	65.0	0	2	248	0.00	29.913 

CoCoRaHS
IN-AL-39
A2 Web Hosting
Creative Commons License
GoDaddy
Look for:

loaded 2017-12-12 15:08:45 • last modified 2010-11-18 10:43:29
Privacy PolicyDisclaimer
• wx.awcolley.com is powered by PmWiki v.2002016 •
• all content (unless otherwise noted) © 2017 A W Colley